createdAt,value
2022-10-23T00:01:21.014Z,100648.56
2022-10-23T00:03:50.512Z,100643.72
2022-10-23T00:06:17.075Z,100644.78
2022-10-23T00:08:45.605Z,100651.22
2022-10-23T00:11:15.789Z,100646.75
2022-10-23T00:13:42.512Z,100651.72
2022-10-23T00:16:09.812Z,100647.28
2022-10-23T00:18:37.705Z,100647.22
2022-10-23T00:21:05.293Z,100648.56
2022-10-23T00:23:31.975Z,100649.41
2022-10-23T00:25:58.808Z,100648.69
2022-10-23T00:28:25.469Z,100648.69
2022-10-23T00:30:52.536Z,100642.63
2022-10-23T00:33:19.122Z,100642.44
2022-10-23T00:35:45.664Z,100641.31
2022-10-23T00:38:12.309Z,100649.25
2022-10-23T00:40:39.193Z,100651.41
2022-10-23T00:43:07.125Z,100652.63
2022-10-23T00:45:34.381Z,100652.50
2022-10-23T00:48:02.214Z,100648.16
2022-10-23T00:50:32.894Z,100651.41
2022-10-23T00:53:03.318Z,100646.13
2022-10-23T00:55:32.182Z,100647.63
2022-10-23T00:57:59.193Z,100649.25
2022-10-23T01:00:40.041Z,100643.28
2022-10-23T01:03:07.745Z,100650.16
2022-10-23T01:05:49.063Z,100644.13
2022-10-23T01:08:26.714Z,100640.09
2022-10-23T01:11:07.301Z,100638.00
2022-10-23T01:13:53.005Z,100628.44
2022-10-23T01:16:43.692Z,100633.66
2022-10-23T01:19:34.864Z,100633.25
2022-10-23T01:22:22.081Z,100618.47
2022-10-23T01:24:59.388Z,100630.38
2022-10-23T01:27:32.805Z,100625.97
2022-10-23T01:30:06.442Z,100621.44
2022-10-23T01:32:48.393Z,100622.03
2022-10-23T01:35:40.523Z,100623.59
2022-10-23T01:38:14.866Z,100624.72
2022-10-23T01:40:57.984Z,100623.28
2022-10-23T01:43:30.563Z,100624.41
2022-10-23T01:46:05.510Z,100628.66
2022-10-23T01:48:37.103Z,100620.91
2022-10-23T01:51:07.590Z,100619.75
2022-10-23T01:53:41.109Z,100622.38
2022-10-23T01:56:22.841Z,100619.94
2022-10-23T01:58:52.662Z,100627.47
2022-10-23T02:01:24.760Z,100627.34
2022-10-23T02:03:54.013Z,100626.44
2022-10-23T02:06:20.687Z,100619.97
2022-10-23T02:08:47.497Z,100616.22
2022-10-23T02:11:17.051Z,100608.41
2022-10-23T02:14:11.136Z,100620.75
2022-10-23T02:16:47.365Z,100614.66
2022-10-23T02:19:37.782Z,100605.56
2022-10-23T02:22:14.597Z,100614.53
2022-10-23T02:24:49.034Z,100608.69
2022-10-23T02:27:26.001Z,100606.50
2022-10-23T02:30:06.003Z,100608.50
2022-10-23T02:32:35.391Z,100609.31
2022-10-23T02:35:02.702Z,100614.97
2022-10-23T02:37:29.392Z,100606.63
2022-10-23T02:39:56.208Z,100606.81
2022-10-23T02:42:26.823Z,100597.59
2022-10-23T02:45:02.645Z,100598.78
2022-10-23T02:47:41.286Z,100598.19
2022-10-23T02:50:22.369Z,100596.47
2022-10-23T02:52:59.167Z,100595.88
2022-10-23T02:55:36.574Z,100590.28
2022-10-23T02:58:19.014Z,100588.66
2022-10-23T03:01:02.043Z,100587.63
2022-10-23T03:03:35.990Z,100578.72
2022-10-23T03:06:03.126Z,100579.84
2022-10-23T03:08:29.692Z,100574.28
2022-10-23T03:10:56.407Z,100577.59
2022-10-23T03:13:23.556Z,100577.53
2022-10-23T03:15:50.175Z,100582.00
2022-10-23T03:18:16.740Z,100573.34
2022-10-23T03:20:49.607Z,100568.06
2022-10-23T03:23:16.424Z,100565.78
2022-10-23T03:25:43.000Z,100567.56
2022-10-23T03:28:10.776Z,100570.50
2022-10-23T03:30:37.345Z,100571.44
2022-10-23T03:33:04.331Z,100559.97
2022-10-23T03:35:34.142Z,100563.31
2022-10-23T03:38:01.531Z,100566.59
2022-10-23T03:40:28.127Z,100564.34
2022-10-23T03:42:54.649Z,100560.94
2022-10-23T03:45:21.247Z,100556.81
2022-10-23T03:47:48.687Z,100550.19
2022-10-23T03:50:15.482Z,100550.50
2022-10-23T03:52:42.713Z,100542.72
2022-10-23T03:55:12.555Z,100542.59
2022-10-23T03:57:39.150Z,100543.09
2022-10-23T04:00:06.654Z,100544.84
2022-10-23T04:02:43.512Z,100544.53
2022-10-23T04:05:11.093Z,100538.91
2022-10-23T04:07:39.698Z,100540.44
2022-10-23T04:10:06.922Z,100538.00
2022-10-23T04:12:35.018Z,100539.50
2022-10-23T04:15:01.592Z,100532.63
2022-10-23T04:19:59.886Z,100545.59
2022-10-23T04:22:28.416Z,100535.16
2022-10-23T04:24:56.106Z,100541.75
2022-10-23T04:27:22.984Z,100543.22
2022-10-23T04:29:49.939Z,100539.47
2022-10-23T04:32:16.530Z,100539.22
2022-10-23T04:34:44.178Z,100527.50
2022-10-23T04:37:10.717Z,100531.72
2022-10-23T04:39:38.033Z,100519.59
2022-10-23T04:42:04.651Z,100525.44
2022-10-23T04:44:31.202Z,100519.09
2022-10-23T04:46:58.144Z,100524.59
2022-10-23T04:49:24.994Z,100524.56
2022-10-23T04:52:18.093Z,100523.91
2022-10-23T04:55:11.072Z,100517.81
2022-10-23T04:58:04.522Z,100529.13
2022-10-23T05:00:31.963Z,100540.03
2022-10-23T05:02:58.579Z,100542.00
2022-10-23T05:05:31.096Z,100536.84
2022-10-23T05:08:06.617Z,100533.59
2022-10-23T05:10:44.434Z,100534.25
2022-10-23T05:13:13.217Z,100535.53
2022-10-23T05:15:40.378Z,100540.84
2022-10-23T05:18:17.796Z,100533.72
2022-10-23T05:20:45.534Z,100532.06
2022-10-23T05:23:15.299Z,100531.75
2022-10-23T05:25:51.265Z,100529.75
2022-10-23T05:28:18.031Z,100543.41
2022-10-23T05:30:45.393Z,100535.56
2022-10-23T05:33:12.333Z,100532.13
2022-10-23T05:35:44.104Z,100527.31
2022-10-23T05:38:13.082Z,100533.69
2022-10-23T05:43:18.047Z,100538.91
2022-10-23T05:45:58.009Z,100536.53
2022-10-23T05:48:45.787Z,100533.75
2022-10-23T05:51:27.372Z,100532.53
2022-10-23T05:54:23.315Z,100528.44
2022-10-23T05:57:08.608Z,100529.38
2022-10-23T05:59:44.002Z,100522.53
2022-10-23T06:02:25.964Z,100513.19
2022-10-23T06:04:58.918Z,100511.28
2022-10-23T06:07:37.465Z,100506.53
2022-10-23T06:10:06.686Z,100504.53
2022-10-23T06:12:37.234Z,100505.06
2022-10-23T06:15:05.261Z,100503.84
2022-10-23T06:17:52.838Z,100492.00
2022-10-23T06:20:20.667Z,100493.56
2022-10-23T06:22:59.115Z,100494.16
2022-10-23T06:25:55.721Z,100488.47
2022-10-23T06:28:30.202Z,100492.00
2022-10-23T06:30:57.841Z,100495.91
2022-10-23T06:33:24.988Z,100501.00
2022-10-23T06:35:51.690Z,100498.09
2022-10-23T06:38:18.358Z,100503.09
2022-10-23T06:40:54.390Z,100494.38
2022-10-23T06:43:28.375Z,100497.94
2022-10-23T06:46:15.862Z,100505.03
2022-10-23T06:49:08.395Z,100489.13
2022-10-23T06:51:46.251Z,100498.34
2022-10-23T06:54:14.378Z,100499.88
2022-10-23T06:56:50.244Z,100504.06
2022-10-23T06:59:23.777Z,100510.97
2022-10-23T07:04:25.254Z,100512.66
2022-10-23T07:06:56.052Z,100506.69
2022-10-23T07:09:26.414Z,100506.97
2022-10-23T07:11:52.949Z,100498.50
2022-10-23T07:14:25.378Z,100495.72
2022-10-23T07:16:52.241Z,100498.34
2022-10-23T07:19:19.955Z,100493.22
2022-10-23T07:21:46.454Z,100501.34
2022-10-23T07:24:38.566Z,100503.69
2022-10-23T07:27:13.875Z,100497.06
2022-10-23T07:29:42.257Z,100493.94
2022-10-23T07:32:09.183Z,100494.25
2022-10-23T07:34:54.761Z,100502.56
2022-10-23T07:37:26.402Z,100507.75
2022-10-23T07:39:53.319Z,100500.50
2022-10-23T07:42:19.957Z,100505.50
2022-10-23T07:44:48.957Z,100507.34
2022-10-23T07:47:15.664Z,100501.25
2022-10-23T07:49:47.057Z,100491.69
2022-10-23T07:52:14.106Z,100484.03
2022-10-23T07:55:04.095Z,100490.25
2022-10-23T07:57:33.285Z,100485.84
2022-10-23T08:00:26.166Z,100483.56
2022-10-23T08:03:01.279Z,100484.56
2022-10-23T08:05:27.977Z,100473.72
2022-10-23T08:07:59.278Z,100474.97
2022-10-23T08:10:26.068Z,100465.78
2022-10-23T08:12:52.784Z,100467.03
2022-10-23T08:15:26.847Z,100468.25
2022-10-23T08:17:59.503Z,100458.72
2022-10-23T08:20:48.246Z,100466.38
2022-10-23T08:23:18.389Z,100470.09
2022-10-23T08:25:45.748Z,100469.88
2022-10-23T08:28:15.657Z,100474.00
2022-10-23T08:30:51.043Z,100485.88
2022-10-23T08:33:18.324Z,100475.03
2022-10-23T08:35:45.020Z,100472.91
2022-10-23T08:38:11.745Z,100474.81
2022-10-23T08:40:48.047Z,100479.53
2022-10-23T08:43:50.634Z,100476.09
2022-10-23T08:46:44.846Z,100478.75
2022-10-23T08:49:42.028Z,100477.09
2022-10-23T08:52:33.647Z,100472.53
2022-10-23T08:55:36.163Z,100471.66
2022-10-23T08:58:24.005Z,100458.72
2022-10-23T09:00:51.516Z,100461.22
2022-10-23T09:03:18.677Z,100456.00
2022-10-23T09:05:54.628Z,100453.09
2022-10-23T09:08:39.728Z,100448.75
2022-10-23T09:11:28.222Z,100444.97
2022-10-23T09:14:00.577Z,100443.56
2022-10-23T09:16:57.421Z,100453.81
2022-10-23T09:19:27.284Z,100451.53
2022-10-23T09:21:55.732Z,100455.44
2022-10-23T09:24:26.010Z,100455.38
2022-10-23T09:26:54.563Z,100456.25
2022-10-23T09:29:32.965Z,100450.34
2022-10-23T09:32:01.942Z,100445.41
2022-10-23T09:34:33.745Z,100442.63
2022-10-23T09:37:04.566Z,100442.81
2022-10-23T09:39:35.655Z,100450.63
2022-10-23T09:42:21.118Z,100447.22
2022-10-23T09:44:51.550Z,100434.47
2022-10-23T09:47:22.538Z,100434.03
2022-10-23T09:49:55.302Z,100422.03
2022-10-23T09:52:31.793Z,100420.84
2022-10-23T09:55:01.331Z,100417.16
2022-10-23T09:57:46.985Z,100428.34
2022-10-23T10:00:24.397Z,100414.00
2022-10-23T10:02:57.031Z,100418.50
2022-10-23T10:05:38.913Z,100422.00
2022-10-23T10:08:25.330Z,100430.16
2022-10-23T10:10:57.814Z,100426.75
2022-10-23T10:13:33.741Z,100428.47
2022-10-23T10:16:03.628Z,100422.63
2022-10-23T10:18:47.466Z,100427.31
2022-10-23T10:21:28.458Z,100417.59
2022-10-23T10:24:29.315Z,100415.84
2022-10-23T10:27:31.200Z,100413.50
2022-10-23T10:30:15.891Z,100401.88
2022-10-23T10:33:11.034Z,100413.47
2022-10-23T10:36:30.145Z,100416.50
2022-10-23T10:39:03.166Z,100410.69
2022-10-23T10:41:56.181Z,100398.56
2022-10-23T10:44:35.119Z,100387.28
2022-10-23T10:47:18.509Z,100392.97
2022-10-23T10:50:02.884Z,100387.75
2022-10-23T10:52:54.727Z,100366.13
2022-10-23T10:55:37.225Z,100361.16
2022-10-23T10:58:23.521Z,100361.91
2022-10-23T11:00:56.027Z,100358.75
2022-10-23T11:03:37.470Z,100350.84
2022-10-23T11:06:14.940Z,100342.66
2022-10-23T11:08:56.252Z,100340.84
2022-10-23T11:11:31.313Z,100340.13
2022-10-23T11:13:58.296Z,100330.38
2022-10-23T11:16:29.285Z,100333.41
2022-10-23T11:19:09.935Z,100331.97
2022-10-23T11:21:46.393Z,100327.22
2022-10-23T11:24:34.987Z,100315.66
2022-10-23T11:27:48.399Z,100317.00
2022-10-23T11:30:27.086Z,100314.03
2022-10-23T11:33:05.557Z,100303.28
2022-10-23T11:35:50.600Z,100304.13
2022-10-23T11:38:24.901Z,100297.78
2022-10-23T11:40:55.372Z,100294.31
2022-10-23T11:43:29.786Z,100289.88
2022-10-23T11:45:58.369Z,100281.56
2022-10-23T11:48:40.224Z,100285.72
2022-10-23T11:51:25.763Z,100275.75
2022-10-23T11:53:52.398Z,100269.47
2022-10-23T11:56:21.566Z,100269.53
2022-10-23T11:58:51.527Z,100267.22
2022-10-23T12:01:39.362Z,100267.66
2022-10-23T12:04:14.856Z,100271.63
2022-10-23T12:06:46.117Z,100265.16
2022-10-23T12:09:39.907Z,100253.72
2022-10-23T12:12:09.265Z,100251.91
2022-10-23T12:14:43.130Z,100237.31
2022-10-23T12:17:37.903Z,100242.81
2022-10-23T12:20:13.793Z,100240.72
2022-10-23T12:23:19.236Z,100240.69
2022-10-23T12:26:06.337Z,100235.56
2022-10-23T12:28:45.310Z,100225.00
2022-10-23T12:31:36.256Z,100204.38
2022-10-23T12:34:47.711Z,100214.03
2022-10-23T12:37:54.563Z,100204.97
2022-10-23T12:40:21.893Z,100201.88
2022-10-23T12:42:54.996Z,100185.16
2022-10-23T12:45:28.969Z,100178.34
2022-10-23T12:47:56.284Z,100170.06
2022-10-23T12:50:28.744Z,100158.50
2022-10-23T12:53:03.681Z,100158.59
2022-10-23T12:55:57.093Z,100146.50
2022-10-23T12:58:27.165Z,100149.91
2022-10-23T13:00:59.177Z,100133.94
2022-10-23T13:03:28.967Z,100137.34
2022-10-23T13:06:04.289Z,100129.22
2022-10-23T13:08:43.331Z,100128.78
2022-10-23T13:11:29.867Z,100124.34
2022-10-23T13:13:59.690Z,100121.19
2022-10-23T13:16:27.086Z,100121.34
2022-10-23T13:18:54.361Z,100128.84
2022-10-23T13:21:24.009Z,100124.16
2022-10-23T13:23:52.540Z,100109.47
2022-10-23T13:26:31.922Z,100113.53
2022-10-23T13:28:59.958Z,100116.66
2022-10-23T13:31:33.586Z,100107.28
2022-10-23T13:34:01.390Z,100100.50
2022-10-23T13:36:30.842Z,100088.41
2022-10-23T13:39:00.181Z,100104.63
2022-10-23T13:41:29.826Z,100111.91
2022-10-23T13:43:56.467Z,100107.59
2022-10-23T13:46:25.622Z,100099.38
2022-10-23T13:48:52.536Z,100105.38
2022-10-23T13:51:22.638Z,100094.66
2022-10-23T13:53:50.661Z,100089.97
2022-10-23T13:56:21.428Z,100084.66
2022-10-23T13:58:48.918Z,100096.03
2022-10-23T14:01:27.969Z,100084.53
2022-10-23T14:03:56.817Z,100083.28
2022-10-23T14:06:23.542Z,100076.81
2022-10-23T14:08:50.362Z,100068.16
2022-10-23T14:11:19.305Z,100070.16
2022-10-23T14:13:46.654Z,100061.47
2022-10-23T14:16:15.029Z,100055.38
2022-10-23T14:18:41.806Z,100068.34
2022-10-23T14:21:10.984Z,100066.66
2022-10-23T14:23:37.601Z,100050.84
2022-10-23T14:26:09.627Z,100049.88
2022-10-23T14:28:36.559Z,100051.72
2022-10-23T14:31:08.274Z,100047.13
2022-10-23T14:33:35.159Z,100041.97
2022-10-23T14:36:02.036Z,100046.56
2022-10-23T14:38:28.764Z,100042.53
2022-10-23T14:40:55.446Z,100035.16
2022-10-23T14:43:23.492Z,100026.94
2022-10-23T14:45:50.030Z,100038.91
2022-10-23T14:48:17.098Z,100028.44
2022-10-23T14:50:46.396Z,100029.72
2022-10-23T14:53:13.486Z,100034.00
2022-10-23T14:55:40.257Z,100032.97
2022-10-23T14:58:07.627Z,100021.44
2022-10-23T15:00:34.191Z,100015.69
2022-10-23T15:03:00.784Z,100004.44
2022-10-23T15:05:27.596Z,100011.00
2022-10-23T15:07:55.135Z,99992.47
2022-10-23T15:10:21.681Z,99992.13
2022-10-23T15:12:48.618Z,99987.88
2022-10-23T15:15:15.228Z,99988.78
2022-10-23T15:17:42.283Z,99979.56
2022-10-23T15:20:10.255Z,99971.59
2022-10-23T15:22:36.881Z,99953.88
2022-10-23T15:25:04.510Z,99946.19
2022-10-23T15:27:31.093Z,99934.16
2022-10-23T15:29:57.645Z,99929.34
2022-10-23T15:32:24.234Z,99914.56
2022-10-23T15:34:52.295Z,99911.34
2022-10-23T15:37:19.066Z,99902.19
2022-10-23T15:39:45.891Z,99900.75
2022-10-23T15:42:12.491Z,99915.63
2022-10-23T15:44:40.089Z,99914.84
2022-10-23T15:47:07.080Z,99912.63
2022-10-23T15:49:34.059Z,99923.97
2022-10-23T15:52:02.264Z,99921.13
2022-10-23T15:54:31.942Z,99925.44
2022-10-23T15:57:00.671Z,99914.19
2022-10-23T15:59:28.665Z,99911.59
2022-10-23T16:01:56.072Z,99902.25
2022-10-23T16:04:22.889Z,99906.88
2022-10-23T16:06:49.688Z,99905.88
2022-10-23T16:09:17.396Z,99898.03
2022-10-23T16:11:44.345Z,99890.25
2022-10-23T16:14:15.797Z,99890.91
2022-10-23T16:16:42.875Z,99883.44
2022-10-23T16:19:11.110Z,99878.84
2022-10-23T16:21:38.386Z,99879.38
2022-10-23T16:24:07.486Z,99881.34
2022-10-23T16:26:35.738Z,99865.47
2022-10-23T16:29:05.808Z,99879.50
2022-10-23T16:31:33.104Z,99891.19
2022-10-23T16:34:01.527Z,99879.00
2022-10-23T16:36:29.059Z,99875.00
2022-10-23T16:39:16.359Z,99874.25
2022-10-23T16:42:01.742Z,99853.06
2022-10-23T16:44:42.286Z,99846.66
2022-10-23T16:47:09.248Z,99855.47
2022-10-23T16:49:35.843Z,99839.44
2022-10-23T16:52:02.801Z,99827.88
2022-10-23T16:54:29.370Z,99833.19
2022-10-23T16:56:56.010Z,99830.59
2022-10-23T16:59:22.551Z,99837.84
2022-10-23T17:01:49.186Z,99827.78
2022-10-23T17:04:15.878Z,99830.25
2022-10-23T17:06:42.485Z,99828.22
2022-10-23T17:09:09.392Z,99832.28
2022-10-23T17:11:40.827Z,99824.34
2022-10-23T17:14:11.261Z,99831.66
2022-10-23T17:16:41.293Z,99825.44
2022-10-23T17:19:21.034Z,99815.81
2022-10-23T17:21:56.927Z,99815.50
2022-10-23T17:24:24.200Z,99817.50
2022-10-23T17:26:51.472Z,99802.78
2022-10-23T17:29:18.313Z,99804.34
2022-10-23T17:31:47.931Z,99805.63
2022-10-23T17:34:18.211Z,99800.47
2022-10-23T17:36:48.915Z,99799.22
2022-10-23T17:39:18.856Z,99791.59
2022-10-23T17:41:46.007Z,99797.50
2022-10-23T17:44:13.425Z,99791.09
2022-10-23T17:46:40.318Z,99799.59
2022-10-23T17:49:07.286Z,99794.06
2022-10-23T17:51:36.115Z,99816.03
2022-10-23T17:54:08.548Z,99808.84
2022-10-23T17:56:37.484Z,99809.06
2022-10-23T17:59:11.537Z,99821.38
2022-10-23T18:01:38.961Z,99845.38
2022-10-23T18:04:07.591Z,99868.47
2022-10-23T18:06:43.266Z,99892.16
2022-10-23T18:09:10.841Z,99868.78
2022-10-23T18:11:43.845Z,99859.06
2022-10-23T18:14:16.942Z,99862.13
2022-10-23T18:16:45.437Z,99854.28
2022-10-23T18:19:12.185Z,99854.97
2022-10-23T18:21:40.067Z,99858.47
2022-10-23T18:24:06.774Z,99852.44
2022-10-23T18:26:40.239Z,99851.28
2022-10-23T18:29:08.799Z,99857.06
2022-10-23T18:31:37.324Z,99847.25
2022-10-23T18:34:24.507Z,99844.91
2022-10-23T18:36:53.167Z,99838.22
2022-10-23T18:39:22.965Z,99844.03
2022-10-23T18:41:52.817Z,99840.66
2022-10-23T18:44:21.020Z,99832.50
2022-10-23T18:46:49.059Z,99821.97
2022-10-23T18:49:17.365Z,99835.66
2022-10-23T18:51:44.035Z,99843.22
2022-10-23T18:54:13.462Z,99837.78
2022-10-23T18:56:41.993Z,99847.25
2022-10-23T18:59:13.782Z,99847.97
2022-10-23T19:01:40.962Z,99860.41
2022-10-23T19:04:08.427Z,99864.03
2022-10-23T19:06:36.725Z,99859.75
2022-10-23T19:09:06.885Z,99862.09
2022-10-23T19:11:33.504Z,99871.81
2022-10-23T19:14:00.093Z,99875.94
2022-10-23T19:16:41.877Z,99892.28
2022-10-23T19:19:28.365Z,99895.47
2022-10-23T19:21:55.779Z,99896.34
2022-10-23T19:24:31.698Z,99889.72
2022-10-23T19:27:01.382Z,99898.94
2022-10-23T19:29:29.060Z,99903.06
2022-10-23T19:31:55.919Z,99903.06
2022-10-23T19:34:24.760Z,99900.44
2022-10-23T19:36:53.512Z,99899.75
2022-10-23T19:39:20.203Z,99903.44
2022-10-23T19:41:46.844Z,99907.13
2022-10-23T19:44:14.873Z,99902.22
2022-10-23T19:46:42.053Z,99903.34
2022-10-23T19:49:09.332Z,99901.16
2022-10-23T19:51:36.105Z,99906.19
2022-10-23T19:54:03.860Z,99899.59
2022-10-23T19:56:30.454Z,99896.16
2022-10-23T19:58:57.218Z,99894.84
2022-10-23T20:01:25.387Z,99904.00
2022-10-23T20:03:52.107Z,99900.97
2022-10-23T20:06:21.768Z,99903.59
2022-10-23T20:08:48.431Z,99905.00
2022-10-23T20:11:24.219Z,99914.31
2022-10-23T20:13:51.701Z,99914.38
2022-10-23T20:16:24.546Z,99915.75
2022-10-23T20:18:51.697Z,99905.53
2022-10-23T20:21:18.946Z,99900.19
2022-10-23T20:23:46.745Z,99889.72
2022-10-23T20:26:16.021Z,99885.03
2022-10-23T20:28:48.358Z,99868.78
2022-10-23T20:31:16.307Z,99855.78
2022-10-23T20:33:43.259Z,99849.94
2022-10-23T20:36:22.230Z,99833.06
2022-10-23T20:38:49.316Z,99821.03
2022-10-23T20:41:17.073Z,99783.34
2022-10-23T20:43:43.769Z,99679.50
2022-10-23T20:46:10.820Z,99675.09
2022-10-23T20:48:42.095Z,99717.22
2022-10-23T20:51:14.044Z,99726.34
2022-10-23T20:53:41.653Z,99716.53
2022-10-23T20:56:20.609Z,99707.56
2022-10-23T20:58:47.259Z,99710.28
2022-10-23T21:01:16.650Z,99710.03
2022-10-23T21:03:44.857Z,99709.09
2022-10-23T21:06:16.824Z,99692.47
2022-10-23T21:08:43.627Z,99692.06
2022-10-23T21:11:12.261Z,99701.91
2022-10-23T21:13:38.886Z,99699.25
2022-10-23T21:16:33.806Z,99695.88
2022-10-23T21:19:02.447Z,99699.41
2022-10-23T21:21:29.735Z,99699.97
2022-10-23T21:23:59.432Z,99705.31
2022-10-23T21:26:27.993Z,99738.38
2022-10-23T21:29:16.884Z,99755.00
2022-10-23T21:31:41.912Z,99739.69
2022-10-23T21:34:08.531Z,99763.78
2022-10-23T21:36:48.229Z,99749.22
2022-10-23T21:39:22.425Z,99751.31
2022-10-23T21:41:49.340Z,99753.31
2022-10-23T21:44:15.842Z,99761.88
2022-10-23T21:46:42.745Z,99756.59
2022-10-23T21:49:10.408Z,99750.38
2022-10-23T21:51:37.822Z,99757.81
2022-10-23T21:54:07.111Z,99755.03
2022-10-23T21:56:56.087Z,99755.47
2022-10-23T21:59:27.849Z,99770.16
2022-10-23T22:01:56.932Z,99772.69
2022-10-23T22:04:23.522Z,99783.97
2022-10-23T22:06:50.475Z,99765.69
2022-10-23T22:09:19.991Z,99771.72
2022-10-23T22:11:52.195Z,99757.69
2022-10-23T22:14:18.993Z,99761.41
2022-10-23T22:16:45.891Z,99766.81
2022-10-23T22:19:14.676Z,99769.03
2022-10-23T22:21:41.622Z,99765.19
2022-10-23T22:24:09.184Z,99755.69
2022-10-23T22:26:38.447Z,99746.34
2022-10-23T22:29:16.793Z,99762.78
2022-10-23T22:31:45.769Z,99755.72
2022-10-23T22:34:26.992Z,99763.44
2022-10-23T22:37:06.794Z,99776.00
2022-10-23T22:39:33.330Z,99777.38
2022-10-23T22:41:59.847Z,99790.25
2022-10-23T22:44:26.499Z,99790.72
2022-10-23T22:46:53.733Z,99792.44
2022-10-23T22:49:20.233Z,99796.16
2022-10-23T22:51:47.137Z,99794.50
2022-10-23T22:54:13.696Z,99794.78
2022-10-23T22:56:40.471Z,99795.16
2022-10-23T22:59:07.092Z,99797.22
2022-10-23T23:01:37.661Z,99793.09
2022-10-23T23:04:19.462Z,99797.81
2022-10-23T23:06:52.291Z,99794.38
2022-10-23T23:09:20.522Z,99797.03
2022-10-23T23:11:52.044Z,99796.25
2022-10-23T23:14:23.509Z,99798.31
2022-10-23T23:16:52.778Z,99791.31
2022-10-23T23:19:19.901Z,99780.41
2022-10-23T23:21:46.541Z,99784.28
2022-10-23T23:24:13.218Z,99785.59
2022-10-23T23:26:40.542Z,99780.63
2022-10-23T23:29:07.321Z,99779.34
2022-10-23T23:31:33.860Z,99780.22
2022-10-23T23:34:00.895Z,99788.50
2022-10-23T23:36:28.199Z,99784.81
2022-10-23T23:38:56.770Z,99793.44
2022-10-23T23:41:24.946Z,99789.00
2022-10-23T23:43:54.406Z,99773.06
2022-10-23T23:46:21.170Z,99782.84
2022-10-23T23:48:49.392Z,99774.97
2022-10-23T23:51:18.724Z,99771.06
2022-10-23T23:53:45.309Z,99774.78
2022-10-23T23:56:12.163Z,99781.28
2022-10-23T23:58:38.918Z,99769.03
